sensor_id;sensor_type;location;lat;lon;timestamp;temperature;humidity
27114;DHT22;14648;49.730;8.614;2023-05-10T00:00:21;15.30;76.40
27114;DHT22;14648;49.730;8.614;2023-05-10T00:02:48;15.30;76.50
27114;DHT22;14648;49.730;8.614;2023-05-10T00:05:13;15.30;76.50
27114;DHT22;14648;49.730;8.614;2023-05-10T00:07:39;15.20;76.40
27114;DHT22;14648;49.730;8.614;2023-05-10T00:10:06;15.20;76.40
27114;DHT22;14648;49.730;8.614;2023-05-10T00:12:32;15.20;76.40
27114;DHT22;14648;49.730;8.614;2023-05-10T00:14:58;15.10;76.40
27114;DHT22;14648;49.730;8.614;2023-05-10T00:17:23;15.10;76.30
27114;DHT22;14648;49.730;8.614;2023-05-10T00:19:49;15.10;76.40
27114;DHT22;14648;49.730;8.614;2023-05-10T00:22:15;15.00;76.30
27114;DHT22;14648;49.730;8.614;2023-05-10T00:24:40;15.00;76.30
27114;DHT22;14648;49.730;8.614;2023-05-10T00:27:06;15.00;76.40
27114;DHT22;14648;49.730;8.614;2023-05-10T00:29:32;15.00;76.30
27114;DHT22;14648;49.730;8.614;2023-05-10T00:31:59;15.00;76.40
27114;DHT22;14648;49.730;8.614;2023-05-10T00:34:24;15.00;76.40
27114;DHT22;14648;49.730;8.614;2023-05-10T00:36:50;15.00;76.40
27114;DHT22;14648;49.730;8.614;2023-05-10T00:39:15;15.00;76.30
27114;DHT22;14648;49.730;8.614;2023-05-10T00:41:41;15.00;76.30
27114;DHT22;14648;49.730;8.614;2023-05-10T00:44:07;15.00;76.30
27114;DHT22;14648;49.730;8.614;2023-05-10T00:46:33;14.90;76.40
27114;DHT22;14648;49.730;8.614;2023-05-10T00:48:59;15.00;76.30
27114;DHT22;14648;49.730;8.614;2023-05-10T00:51:25;14.90;76.40
27114;DHT22;14648;49.730;8.614;2023-05-10T00:53:51;14.90;76.50
27114;DHT22;14648;49.730;8.614;2023-05-10T00:56:17;14.90;76.60
27114;DHT22;14648;49.730;8.614;2023-05-10T00:58:42;14.90;76.50
27114;DHT22;14648;49.730;8.614;2023-05-10T01:01:09;14.90;76.50
27114;DHT22;14648;49.730;8.614;2023-05-10T01:03:36;14.80;76.50
27114;DHT22;14648;49.730;8.614;2023-05-10T01:06:02;14.80;76.50
27114;DHT22;14648;49.730;8.614;2023-05-10T01:08:28;14.80;76.50
27114;DHT22;14648;49.730;8.614;2023-05-10T01:10:54;14.80;76.50
27114;DHT22;14648;49.730;8.614;2023-05-10T01:13:32;14.80;76.50
27114;DHT22;14648;49.730;8.614;2023-05-10T01:15:59;14.80;76.60
27114;DHT22;14648;49.730;8.614;2023-05-10T01:18:28;14.70;76.60
27114;DHT22;14648;49.730;8.614;2023-05-10T01:27:00;14.70;76.70
27114;DHT22;14648;49.730;8.614;2023-05-10T01:29:53;14.70;76.50
27114;DHT22;14648;49.730;8.614;2023-05-10T01:33:15;14.70;76.50
27114;DHT22;14648;49.730;8.614;2023-05-10T01:35:47;14.70;76.50
27114;DHT22;14648;49.730;8.614;2023-05-10T01:38:26;14.60;76.30
27114;DHT22;14648;49.730;8.614;2023-05-10T01:44:24;14.60;76.40
27114;DHT22;14648;49.730;8.614;2023-05-10T01:47:04;14.60;76.30
27114;DHT22;14648;49.730;8.614;2023-05-10T01:49:36;14.60;76.20
27114;DHT22;14648;49.730;8.614;2023-05-10T01:52:28;14.60;76.40
27114;DHT22;14648;49.730;8.614;2023-05-10T01:55:02;14.60;76.30
27114;DHT22;14648;49.730;8.614;2023-05-10T01:57:35;14.60;76.50
27114;DHT22;14648;49.730;8.614;2023-05-10T02:00:03;14.60;76.40
27114;DHT22;14648;49.730;8.614;2023-05-10T02:02:34;14.60;76.40
27114;DHT22;14648;49.730;8.614;2023-05-10T02:05:04;14.60;76.40
27114;DHT22;14648;49.730;8.614;2023-05-10T02:07:32;14.60;76.30
27114;DHT22;14648;49.730;8.614;2023-05-10T02:10:00;14.60;76.40
27114;DHT22;14648;49.730;8.614;2023-05-10T02:12:28;14.60;76.60
27114;DHT22;14648;49.730;8.614;2023-05-10T02:14:55;14.60;76.40
27114;DHT22;14648;49.730;8.614;2023-05-10T02:17:23;14.60;76.40
27114;DHT22;14648;49.730;8.614;2023-05-10T02:19:49;14.60;76.50
27114;DHT22;14648;49.730;8.614;2023-05-10T02:22:17;14.60;76.50
27114;DHT22;14648;49.730;8.614;2023-05-10T02:24:44;14.60;76.50
27114;DHT22;14648;49.730;8.614;2023-05-10T02:27:11;14.60;76.50
27114;DHT22;14648;49.730;8.614;2023-05-10T02:29:38;14.50;76.60
27114;DHT22;14648;49.730;8.614;2023-05-10T02:32:04;14.60;76.50
27114;DHT22;14648;49.730;8.614;2023-05-10T02:34:31;14.50;76.50
27114;DHT22;14648;49.730;8.614;2023-05-10T02:36:58;14.50;76.40
27114;DHT22;14648;49.730;8.614;2023-05-10T02:39:26;14.50;76.50
27114;DHT22;14648;49.730;8.614;2023-05-10T02:41:53;14.50;76.40
27114;DHT22;14648;49.730;8.614;2023-05-10T02:44:22;14.50;76.50
27114;DHT22;14648;49.730;8.614;2023-05-10T02:46:48;14.50;76.40
27114;DHT22;14648;49.730;8.614;2023-05-10T02:49:14;14.50;76.30
27114;DHT22;14648;49.730;8.614;2023-05-10T02:51:50;14.50;76.30
27114;DHT22;14648;49.730;8.614;2023-05-10T02:54:25;14.50;76.30
27114;DHT22;14648;49.730;8.614;2023-05-10T02:56:58;14.50;76.20
27114;DHT22;14648;49.730;8.614;2023-05-10T02:59:26;14.50;76.20
27114;DHT22;14648;49.730;8.614;2023-05-10T03:01:52;14.50;76.20
27114;DHT22;14648;49.730;8.614;2023-05-10T03:04:18;14.50;76.20
27114;DHT22;14648;49.730;8.614;2023-05-10T03:06:44;14.50;76.20
27114;DHT22;14648;49.730;8.614;2023-05-10T03:09:10;14.50;76.20
27114;DHT22;14648;49.730;8.614;2023-05-10T03:12:17;14.40;76.10
27114;DHT22;14648;49.730;8.614;2023-05-10T03:15:03;14.40;76.20
27114;DHT22;14648;49.730;8.614;2023-05-10T03:20:21;14.40;76.00
27114;DHT22;14648;49.730;8.614;2023-05-10T03:22:55;14.40;75.90
27114;DHT22;14648;49.730;8.614;2023-05-10T03:25:25;14.40;76.00
27114;DHT22;14648;49.730;8.614;2023-05-10T03:27:52;14.40;75.90
27114;DHT22;14648;49.730;8.614;2023-05-10T03:30:18;14.40;75.90
27114;DHT22;14648;49.730;8.614;2023-05-10T03:32:44;14.40;76.00
27114;DHT22;14648;49.730;8.614;2023-05-10T03:35:12;14.40;75.90
27114;DHT22;14648;49.730;8.614;2023-05-10T03:37:39;14.40;75.90
27114;DHT22;14648;49.730;8.614;2023-05-10T03:40:05;14.40;75.90
27114;DHT22;14648;49.730;8.614;2023-05-10T03:42:31;14.40;76.70
27114;DHT22;14648;49.730;8.614;2023-05-10T03:44:57;14.40;76.00
27114;DHT22;14648;49.730;8.614;2023-05-10T03:47:23;14.40;76.00
27114;DHT22;14648;49.730;8.614;2023-05-10T03:49:48;14.50;76.10
27114;DHT22;14648;49.730;8.614;2023-05-10T03:52:14;14.50;76.10
27114;DHT22;14648;49.730;8.614;2023-05-10T03:54:40;14.50;76.00
27114;DHT22;14648;49.730;8.614;2023-05-10T03:57:05;14.50;76.00
27114;DHT22;14648;49.730;8.614;2023-05-10T03:59:31;14.40;76.00
27114;DHT22;14648;49.730;8.614;2023-05-10T04:01:57;14.50;76.10
27114;DHT22;14648;49.730;8.614;2023-05-10T04:04:22;14.50;76.10
27114;DHT22;14648;49.730;8.614;2023-05-10T04:06:49;14.50;76.20
27114;DHT22;14648;49.730;8.614;2023-05-10T04:09:15;14.40;76.10
27114;DHT22;14648;49.730;8.614;2023-05-10T04:11:42;14.40;76.10
27114;DHT22;14648;49.730;8.614;2023-05-10T04:14:07;14.40;76.80
27114;DHT22;14648;49.730;8.614;2023-05-10T04:16:33;14.40;76.20
27114;DHT22;14648;49.730;8.614;2023-05-10T04:18:59;14.40;76.10
27114;DHT22;14648;49.730;8.614;2023-05-10T04:21:25;14.40;76.10
27114;DHT22;14648;49.730;8.614;2023-05-10T04:23:50;14.40;76.00
27114;DHT22;14648;49.730;8.614;2023-05-10T04:26:16;14.40;76.00
27114;DHT22;14648;49.730;8.614;2023-05-10T04:28:42;14.40;76.00
27114;DHT22;14648;49.730;8.614;2023-05-10T04:31:09;14.40;75.90
27114;DHT22;14648;49.730;8.614;2023-05-10T04:33:35;14.40;75.90
27114;DHT22;14648;49.730;8.614;2023-05-10T04:36:02;14.40;75.90
27114;DHT22;14648;49.730;8.614;2023-05-10T04:38:28;14.40;75.90
27114;DHT22;14648;49.730;8.614;2023-05-10T04:41:06;14.40;75.90
27114;DHT22;14648;49.730;8.614;2023-05-10T04:43:34;14.40;75.90
27114;DHT22;14648;49.730;8.614;2023-05-10T04:46:00;14.40;75.80
27114;DHT22;14648;49.730;8.614;2023-05-10T04:48:26;14.40;75.80
27114;DHT22;14648;49.730;8.614;2023-05-10T04:50:52;14.40;75.80
27114;DHT22;14648;49.730;8.614;2023-05-10T04:53:17;14.40;75.90
27114;DHT22;14648;49.730;8.614;2023-05-10T04:55:43;14.40;75.90
27114;DHT22;14648;49.730;8.614;2023-05-10T04:58:09;14.40;75.80
27114;DHT22;14648;49.730;8.614;2023-05-10T05:00:34;14.40;75.80
27114;DHT22;14648;49.730;8.614;2023-05-10T05:03:00;14.40;75.70
27114;DHT22;14648;49.730;8.614;2023-05-10T05:05:26;14.40;75.70
27114;DHT22;14648;49.730;8.614;2023-05-10T05:07:52;14.40;75.70
27114;DHT22;14648;49.730;8.614;2023-05-10T05:10:17;14.40;75.70
27114;DHT22;14648;49.730;8.614;2023-05-10T05:12:43;14.40;75.60
27114;DHT22;14648;49.730;8.614;2023-05-10T05:15:10;14.40;75.70
27114;DHT22;14648;49.730;8.614;2023-05-10T05:17:36;14.40;75.60
27114;DHT22;14648;49.730;8.614;2023-05-10T05:20:02;14.40;75.60
27114;DHT22;14648;49.730;8.614;2023-05-10T05:22:28;14.40;75.60
27114;DHT22;14648;49.730;8.614;2023-05-10T05:24:55;14.40;75.60
27114;DHT22;14648;49.730;8.614;2023-05-10T05:27:20;14.40;75.60
27114;DHT22;14648;49.730;8.614;2023-05-10T05:29:56;14.40;75.50
27114;DHT22;14648;49.730;8.614;2023-05-10T05:32:22;14.40;75.50
27114;DHT22;14648;49.730;8.614;2023-05-10T05:34:48;14.40;75.40
27114;DHT22;14648;49.730;8.614;2023-05-10T05:37:19;14.40;75.40
27114;DHT22;14648;49.730;8.614;2023-05-10T05:39:47;14.40;75.30
27114;DHT22;14648;49.730;8.614;2023-05-10T05:42:13;14.40;75.30
27114;DHT22;14648;49.730;8.614;2023-05-10T05:44:40;14.40;75.20
27114;DHT22;14648;49.730;8.614;2023-05-10T05:47:06;14.50;75.40
27114;DHT22;14648;49.730;8.614;2023-05-10T05:49:32;14.40;75.20
27114;DHT22;14648;49.730;8.614;2023-05-10T05:52:01;14.50;75.40
27114;DHT22;14648;49.730;8.614;2023-05-10T05:54:28;14.50;75.40
27114;DHT22;14648;49.730;8.614;2023-05-10T05:56:58;14.50;75.40
27114;DHT22;14648;49.730;8.614;2023-05-10T05:59:24;14.50;75.40
27114;DHT22;14648;49.730;8.614;2023-05-10T06:01:50;14.60;75.30
27114;DHT22;14648;49.730;8.614;2023-05-10T06:04:16;14.60;75.20
27114;DHT22;14648;49.730;8.614;2023-05-10T06:06:42;14.60;75.20
27114;DHT22;14648;49.730;8.614;2023-05-10T06:09:08;14.60;75.10
27114;DHT22;14648;49.730;8.614;2023-05-10T06:11:35;14.60;75.10
27114;DHT22;14648;49.730;8.614;2023-05-10T06:14:01;14.70;75.00
27114;DHT22;14648;49.730;8.614;2023-05-10T06:16:29;14.70;75.10
27114;DHT22;14648;49.730;8.614;2023-05-10T06:18:54;14.70;75.00
27114;DHT22;14648;49.730;8.614;2023-05-10T06:21:20;14.70;75.00
27114;DHT22;14648;49.730;8.614;2023-05-10T06:23:46;14.80;75.00
27114;DHT22;14648;49.730;8.614;2023-05-10T06:26:12;14.80;74.90
27114;DHT22;14648;49.730;8.614;2023-05-10T06:28:39;14.80;74.90
27114;DHT22;14648;49.730;8.614;2023-05-10T06:31:05;14.80;75.00
27114;DHT22;14648;49.730;8.614;2023-05-10T06:33:31;14.90;75.10
27114;DHT22;14648;49.730;8.614;2023-05-10T06:35:58;15.00;75.20
27114;DHT22;14648;49.730;8.614;2023-05-10T06:38:24;15.00;75.10
27114;DHT22;14648;49.730;8.614;2023-05-10T06:40:49;15.00;75.10
27114;DHT22;14648;49.730;8.614;2023-05-10T06:43:15;15.10;75.20
27114;DHT22;14648;49.730;8.614;2023-05-10T06:45:41;15.10;75.10
27114;DHT22;14648;49.730;8.614;2023-05-10T06:48:07;15.10;75.20
27114;DHT22;14648;49.730;8.614;2023-05-10T06:50:33;15.10;75.20
27114;DHT22;14648;49.730;8.614;2023-05-10T06:53:01;15.20;75.20
27114;DHT22;14648;49.730;8.614;2023-05-10T06:55:27;15.20;75.30
27114;DHT22;14648;49.730;8.614;2023-05-10T06:57:53;15.30;75.30
27114;DHT22;14648;49.730;8.614;2023-05-10T07:00:20;15.30;75.30
27114;DHT22;14648;49.730;8.614;2023-05-10T07:02:46;15.40;75.30
27114;DHT22;14648;49.730;8.614;2023-05-10T07:05:12;15.30;75.40
27114;DHT22;14648;49.730;8.614;2023-05-10T07:07:38;15.30;75.40
27114;DHT22;14648;49.730;8.614;2023-05-10T07:10:05;15.40;75.40
27114;DHT22;14648;49.730;8.614;2023-05-10T07:12:31;15.40;76.20
27114;DHT22;14648;49.730;8.614;2023-05-10T07:14:57;15.40;75.30
27114;DHT22;14648;49.730;8.614;2023-05-10T07:17:22;15.50;75.40
27114;DHT22;14648;49.730;8.614;2023-05-10T07:19:48;15.50;75.30
27114;DHT22;14648;49.730;8.614;2023-05-10T07:22:15;15.60;75.10
27114;DHT22;14648;49.730;8.614;2023-05-10T07:24:41;15.60;75.10
27114;DHT22;14648;49.730;8.614;2023-05-10T07:27:07;15.60;75.10
27114;DHT22;14648;49.730;8.614;2023-05-10T07:29:33;15.70;75.00
27114;DHT22;14648;49.730;8.614;2023-05-10T07:31:58;15.70;74.80
27114;DHT22;14648;49.730;8.614;2023-05-10T07:34:24;15.70;74.70
27114;DHT22;14648;49.730;8.614;2023-05-10T07:36:51;15.80;74.70
27114;DHT22;14648;49.730;8.614;2023-05-10T07:39:17;15.90;74.80
27114;DHT22;14648;49.730;8.614;2023-05-10T07:41:42;16.00;75.00
27114;DHT22;14648;49.730;8.614;2023-05-10T07:44:08;16.00;74.60
27114;DHT22;14648;49.730;8.614;2023-05-10T07:46:34;16.10;74.50
27114;DHT22;14648;49.730;8.614;2023-05-10T07:48:59;16.10;74.40
27114;DHT22;14648;49.730;8.614;2023-05-10T07:51:25;16.20;74.40
27114;DHT22;14648;49.730;8.614;2023-05-10T07:53:51;16.30;74.50
27114;DHT22;14648;49.730;8.614;2023-05-10T07:56:28;16.30;74.30
27114;DHT22;14648;49.730;8.614;2023-05-10T07:59:02;16.30;74.10
27114;DHT22;14648;49.730;8.614;2023-05-10T08:01:33;16.30;74.20
27114;DHT22;14648;49.730;8.614;2023-05-10T08:04:02;16.30;74.20
27114;DHT22;14648;49.730;8.614;2023-05-10T08:06:28;16.40;74.10
27114;DHT22;14648;49.730;8.614;2023-05-10T08:08:55;16.30;74.90
27114;DHT22;14648;49.730;8.614;2023-05-10T08:11:21;16.40;74.10
27114;DHT22;14648;49.730;8.614;2023-05-10T08:13:48;16.40;74.10
27114;DHT22;14648;49.730;8.614;2023-05-10T08:16:15;16.40;74.80
27114;DHT22;14648;49.730;8.614;2023-05-10T08:18:43;16.40;74.00
27114;DHT22;14648;49.730;8.614;2023-05-10T08:21:14;16.40;73.90
27114;DHT22;14648;49.730;8.614;2023-05-10T08:23:40;16.40;73.90
27114;DHT22;14648;49.730;8.614;2023-05-10T08:26:06;16.40;73.80
27114;DHT22;14648;49.730;8.614;2023-05-10T08:28:32;16.50;73.80
27114;DHT22;14648;49.730;8.614;2023-05-10T08:30:57;16.50;73.60
27114;DHT22;14648;49.730;8.614;2023-05-10T08:33:23;16.50;73.50
27114;DHT22;14648;49.730;8.614;2023-05-10T08:35:49;16.50;73.30
27114;DHT22;14648;49.730;8.614;2023-05-10T08:38:15;16.50;73.20
27114;DHT22;14648;49.730;8.614;2023-05-10T08:40:42;16.50;73.00
27114;DHT22;14648;49.730;8.614;2023-05-10T08:43:11;16.60;72.70
27114;DHT22;14648;49.730;8.614;2023-05-10T08:45:42;16.60;72.40
27114;DHT22;14648;49.730;8.614;2023-05-10T08:48:11;16.60;72.10
27114;DHT22;14648;49.730;8.614;2023-05-10T08:50:38;16.70;71.90
27114;DHT22;14648;49.730;8.614;2023-05-10T08:53:12;16.70;72.30
27114;DHT22;14648;49.730;8.614;2023-05-10T08:55:39;16.70;71.40
27114;DHT22;14648;49.730;8.614;2023-05-10T08:58:07;16.80;71.20
27114;DHT22;14648;49.730;8.614;2023-05-10T09:00:34;16.90;71.00
27114;DHT22;14648;49.730;8.614;2023-05-10T09:03:02;17.00;70.50
27114;DHT22;14648;49.730;8.614;2023-05-10T09:05:28;17.10;70.00
27114;DHT22;14648;49.730;8.614;2023-05-10T09:07:54;17.20;69.80
27114;DHT22;14648;49.730;8.614;2023-05-10T09:10:20;17.20;69.50
27114;DHT22;14648;49.730;8.614;2023-05-10T09:12:48;17.30;69.10
27114;DHT22;14648;49.730;8.614;2023-05-10T09:15:15;17.30;68.90
27114;DHT22;14648;49.730;8.614;2023-05-10T09:17:42;17.40;68.50
27114;DHT22;14648;49.730;8.614;2023-05-10T09:20:09;17.40;68.10
27114;DHT22;14648;49.730;8.614;2023-05-10T09:22:35;17.40;67.70
27114;DHT22;14648;49.730;8.614;2023-05-10T09:25:17;17.40;67.60
27114;DHT22;14648;49.730;8.614;2023-05-10T09:27:47;17.50;67.30
27114;DHT22;14648;49.730;8.614;2023-05-10T09:30:22;17.50;67.00
27114;DHT22;14648;49.730;8.614;2023-05-10T09:32:50;17.50;66.90
27114;DHT22;14648;49.730;8.614;2023-05-10T09:35:19;17.50;67.00
27114;DHT22;14648;49.730;8.614;2023-05-10T09:37:48;17.50;66.90
27114;DHT22;14648;49.730;8.614;2023-05-10T09:40:22;17.60;66.60
27114;DHT22;14648;49.730;8.614;2023-05-10T09:42:59;17.60;66.00
27114;DHT22;14648;49.730;8.614;2023-05-10T09:45:31;17.70;65.90
27114;DHT22;14648;49.730;8.614;2023-05-10T09:47:58;17.70;65.40
27114;DHT22;14648;49.730;8.614;2023-05-10T09:50:25;17.80;64.60
27114;DHT22;14648;49.730;8.614;2023-05-10T09:55:21;17.80;63.90
27114;DHT22;14648;49.730;8.614;2023-05-10T09:57:48;17.90;63.80
27114;DHT22;14648;49.730;8.614;2023-05-10T10:00:19;17.90;63.60
27114;DHT22;14648;49.730;8.614;2023-05-10T10:02:56;17.90;63.10
27114;DHT22;14648;49.730;8.614;2023-05-10T10:05:30;18.00;63.40
27114;DHT22;14648;49.730;8.614;2023-05-10T10:07:57;18.00;62.20
27114;DHT22;14648;49.730;8.614;2023-05-10T10:10:27;18.00;62.20
27114;DHT22;14648;49.730;8.614;2023-05-10T10:12:54;18.00;61.70
27114;DHT22;14648;49.730;8.614;2023-05-10T10:15:21;18.00;61.50
27114;DHT22;14648;49.730;8.614;2023-05-10T10:17:48;18.00;61.10
27114;DHT22;14648;49.730;8.614;2023-05-10T10:20:15;18.10;61.10
27114;DHT22;14648;49.730;8.614;2023-05-10T10:22:41;18.10;60.30
27114;DHT22;14648;49.730;8.614;2023-05-10T10:25:11;18.10;60.00
27114;DHT22;14648;49.730;8.614;2023-05-10T10:30:41;18.10;59.10
27114;DHT22;14648;49.730;8.614;2023-05-10T10:33:21;18.10;58.60
27114;DHT22;14648;49.730;8.614;2023-05-10T10:35:54;18.20;59.00
27114;DHT22;14648;49.730;8.614;2023-05-10T10:38:21;18.20;59.00
27114;DHT22;14648;49.730;8.614;2023-05-10T10:40:48;18.20;59.10
27114;DHT22;14648;49.730;8.614;2023-05-10T10:43:24;18.20;59.10
27114;DHT22;14648;49.730;8.614;2023-05-10T10:46:13;18.20;58.50
27114;DHT22;14648;49.730;8.614;2023-05-10T10:48:41;18.30;57.60
27114;DHT22;14648;49.730;8.614;2023-05-10T10:51:13;18.30;57.80
27114;DHT22;14648;49.730;8.614;2023-05-10T10:53:40;18.30;57.80
27114;DHT22;14648;49.730;8.614;2023-05-10T10:56:10;18.30;57.80
27114;DHT22;14648;49.730;8.614;2023-05-10T10:58:39;18.20;57.80
27114;DHT22;14648;49.730;8.614;2023-05-10T11:01:16;18.20;58.20
27114;DHT22;14648;49.730;8.614;2023-05-10T11:06:35;18.40;58.10
27114;DHT22;14648;49.730;8.614;2023-05-10T11:09:10;18.50;58.10
27114;DHT22;14648;49.730;8.614;2023-05-10T11:11:48;18.60;57.90
27114;DHT22;14648;49.730;8.614;2023-05-10T11:14:20;18.70;57.70
27114;DHT22;14648;49.730;8.614;2023-05-10T11:16:47;18.80;57.70
27114;DHT22;14648;49.730;8.614;2023-05-10T11:19:14;18.80;57.90
27114;DHT22;14648;49.730;8.614;2023-05-10T11:21:49;18.90;57.70
27114;DHT22;14648;49.730;8.614;2023-05-10T11:24:21;18.90;57.10
27114;DHT22;14648;49.730;8.614;2023-05-10T11:26:50;18.90;56.30
27114;DHT22;14648;49.730;8.614;2023-05-10T11:29:17;18.80;56.00
27114;DHT22;14648;49.730;8.614;2023-05-10T11:31:44;18.80;55.90
27114;DHT22;14648;49.730;8.614;2023-05-10T11:34:11;18.70;55.60
27114;DHT22;14648;49.730;8.614;2023-05-10T11:36:37;18.70;55.70
27114;DHT22;14648;49.730;8.614;2023-05-10T11:39:04;18.70;55.40
27114;DHT22;14648;49.730;8.614;2023-05-10T11:41:31;18.70;55.20
27114;DHT22;14648;49.730;8.614;2023-05-10T11:43:57;18.80;55.10
27114;DHT22;14648;49.730;8.614;2023-05-10T11:46:25;18.80;54.60
27114;DHT22;14648;49.730;8.614;2023-05-10T11:49:01;18.80;54.40
27114;DHT22;14648;49.730;8.614;2023-05-10T11:51:29;18.80;54.10
27114;DHT22;14648;49.730;8.614;2023-05-10T11:53:58;18.80;54.30
27114;DHT22;14648;49.730;8.614;2023-05-10T11:56:24;18.80;53.90
27114;DHT22;14648;49.730;8.614;2023-05-10T11:58:53;18.80;53.70
27114;DHT22;14648;49.730;8.614;2023-05-10T12:01:21;18.80;53.30
27114;DHT22;14648;49.730;8.614;2023-05-10T12:03:49;18.80;53.60
27114;DHT22;14648;49.730;8.614;2023-05-10T12:06:16;18.90;53.70
27114;DHT22;14648;49.730;8.614;2023-05-10T12:08:47;18.90;53.50
27114;DHT22;14648;49.730;8.614;2023-05-10T12:11:14;19.00;53.10
27114;DHT22;14648;49.730;8.614;2023-05-10T12:13:44;19.10;53.60
27114;DHT22;14648;49.730;8.614;2023-05-10T12:16:16;19.10;53.60
27114;DHT22;14648;49.730;8.614;2023-05-10T12:18:43;19.20;53.70
27114;DHT22;14648;49.730;8.614;2023-05-10T12:21:10;19.30;53.50
27114;DHT22;14648;49.730;8.614;2023-05-10T12:23:37;19.40;53.50
27114;DHT22;14648;49.730;8.614;2023-05-10T12:26:04;19.60;54.20
27114;DHT22;14648;49.730;8.614;2023-05-10T12:28:32;19.80;53.20
27114;DHT22;14648;49.730;8.614;2023-05-10T12:30:59;19.90;53.00
27114;DHT22;14648;49.730;8.614;2023-05-10T12:33:25;20.00;52.30
27114;DHT22;14648;49.730;8.614;2023-05-10T12:35:53;20.00;52.10
27114;DHT22;14648;49.730;8.614;2023-05-10T12:38:33;20.00;51.90
27114;DHT22;14648;49.730;8.614;2023-05-10T12:41:01;20.00;51.70
27114;DHT22;14648;49.730;8.614;2023-05-10T12:43:28;20.00;51.70
27114;DHT22;14648;49.730;8.614;2023-05-10T12:45:54;19.90;51.70
27114;DHT22;14648;49.730;8.614;2023-05-10T12:48:20;19.80;51.60
27114;DHT22;14648;49.730;8.614;2023-05-10T12:50:46;19.70;51.50
27114;DHT22;14648;49.730;8.614;2023-05-10T12:53:14;19.70;51.60
27114;DHT22;14648;49.730;8.614;2023-05-10T12:55:43;19.70;51.80
27114;DHT22;14648;49.730;8.614;2023-05-10T12:58:09;19.70;51.80
27114;DHT22;14648;49.730;8.614;2023-05-10T13:00:35;19.80;51.70
27114;DHT22;14648;49.730;8.614;2023-05-10T13:03:06;19.80;51.80
27114;DHT22;14648;49.730;8.614;2023-05-10T13:05:32;19.90;51.90
27114;DHT22;14648;49.730;8.614;2023-05-10T13:07:58;19.90;52.10
27114;DHT22;14648;49.730;8.614;2023-05-10T13:10:24;19.80;51.60
27114;DHT22;14648;49.730;8.614;2023-05-10T13:12:50;19.70;51.70
27114;DHT22;14648;49.730;8.614;2023-05-10T13:15:16;19.60;51.10
27114;DHT22;14648;49.730;8.614;2023-05-10T13:17:42;19.60;51.00
27114;DHT22;14648;49.730;8.614;2023-05-10T13:20:09;19.50;51.20
27114;DHT22;14648;49.730;8.614;2023-05-10T13:22:35;19.40;50.80
27114;DHT22;14648;49.730;8.614;2023-05-10T13:25:01;19.40;51.00
27114;DHT22;14648;49.730;8.614;2023-05-10T13:27:27;19.40;50.70
27114;DHT22;14648;49.730;8.614;2023-05-10T13:29:54;19.30;50.60
27114;DHT22;14648;49.730;8.614;2023-05-10T13:32:20;19.30;50.90
27114;DHT22;14648;49.730;8.614;2023-05-10T13:34:46;19.40;50.80
27114;DHT22;14648;49.730;8.614;2023-05-10T13:37:15;19.50;50.60
27114;DHT22;14648;49.730;8.614;2023-05-10T13:39:41;19.50;50.10
27114;DHT22;14648;49.730;8.614;2023-05-10T13:42:07;19.60;50.00
27114;DHT22;14648;49.730;8.614;2023-05-10T13:44:33;19.60;49.70
27114;DHT22;14648;49.730;8.614;2023-05-10T13:46:59;19.70;49.60
27114;DHT22;14648;49.730;8.614;2023-05-10T13:49:24;19.80;49.10
27114;DHT22;14648;49.730;8.614;2023-05-10T13:51:50;19.80;48.90
27114;DHT22;14648;49.730;8.614;2023-05-10T13:54:16;19.80;49.10
27114;DHT22;14648;49.730;8.614;2023-05-10T13:56:45;19.80;49.10
27114;DHT22;14648;49.730;8.614;2023-05-10T13:59:12;19.80;48.80
27114;DHT22;14648;49.730;8.614;2023-05-10T14:01:40;19.90;48.30
27114;DHT22;14648;49.730;8.614;2023-05-10T14:04:06;19.90;48.40
27114;DHT22;14648;49.730;8.614;2023-05-10T14:06:35;20.00;48.30
27114;DHT22;14648;49.730;8.614;2023-05-10T14:09:02;20.10;48.10
27114;DHT22;14648;49.730;8.614;2023-05-10T14:11:28;20.20;47.90
27114;DHT22;14648;49.730;8.614;2023-05-10T14:13:54;20.30;47.70
27114;DHT22;14648;49.730;8.614;2023-05-10T14:16:20;20.20;47.50
27114;DHT22;14648;49.730;8.614;2023-05-10T14:18:46;20.20;47.60
27114;DHT22;14648;49.730;8.614;2023-05-10T14:21:12;20.30;47.50
27114;DHT22;14648;49.730;8.614;2023-05-10T14:23:38;20.30;48.00
27114;DHT22;14648;49.730;8.614;2023-05-10T14:26:04;20.20;47.90
27114;DHT22;14648;49.730;8.614;2023-05-10T14:28:30;20.10;48.00
27114;DHT22;14648;49.730;8.614;2023-05-10T14:30:56;20.00;48.00
27114;DHT22;14648;49.730;8.614;2023-05-10T14:33:21;19.90;48.30
27114;DHT22;14648;49.730;8.614;2023-05-10T14:35:47;19.90;48.40
27114;DHT22;14648;49.730;8.614;2023-05-10T14:38:14;19.80;48.70
27114;DHT22;14648;49.730;8.614;2023-05-10T14:40:39;19.80;48.70
27114;DHT22;14648;49.730;8.614;2023-05-10T14:43:05;19.70;48.70
27114;DHT22;14648;49.730;8.614;2023-05-10T14:45:31;19.70;48.70
27114;DHT22;14648;49.730;8.614;2023-05-10T14:47:57;19.60;48.80
27114;DHT22;14648;49.730;8.614;2023-05-10T14:50:23;19.60;48.50
27114;DHT22;14648;49.730;8.614;2023-05-10T14:52:49;19.50;48.50
27114;DHT22;14648;49.730;8.614;2023-05-10T14:55:15;19.50;48.10
27114;DHT22;14648;49.730;8.614;2023-05-10T14:57:41;19.40;48.00
27114;DHT22;14648;49.730;8.614;2023-05-10T15:00:07;19.30;47.90
27114;DHT22;14648;49.730;8.614;2023-05-10T15:02:34;19.30;47.90
27114;DHT22;14648;49.730;8.614;2023-05-10T15:05:00;19.30;47.80
27114;DHT22;14648;49.730;8.614;2023-05-10T15:07:25;19.20;47.70
27114;DHT22;14648;49.730;8.614;2023-05-10T15:09:51;19.20;47.80
27114;DHT22;14648;49.730;8.614;2023-05-10T15:12:17;19.10;47.70
27114;DHT22;14648;49.730;8.614;2023-05-10T15:14:44;19.20;47.60
27114;DHT22;14648;49.730;8.614;2023-05-10T15:17:10;19.20;47.40
27114;DHT22;14648;49.730;8.614;2023-05-10T15:19:36;19.20;47.40
27114;DHT22;14648;49.730;8.614;2023-05-10T15:22:03;19.20;47.30
27114;DHT22;14648;49.730;8.614;2023-05-10T15:24:29;19.20;47.00
27114;DHT22;14648;49.730;8.614;2023-05-10T15:26:55;19.20;47.10
27114;DHT22;14648;49.730;8.614;2023-05-10T15:29:21;19.20;47.00
27114;DHT22;14648;49.730;8.614;2023-05-10T15:31:47;19.30;46.80
27114;DHT22;14648;49.730;8.614;2023-05-10T15:34:14;19.20;46.50
27114;DHT22;14648;49.730;8.614;2023-05-10T15:36:43;19.20;46.70
27114;DHT22;14648;49.730;8.614;2023-05-10T15:39:10;19.20;46.50
27114;DHT22;14648;49.730;8.614;2023-05-10T15:41:36;19.10;46.50
27114;DHT22;14648;49.730;8.614;2023-05-10T15:44:03;19.10;46.40
27114;DHT22;14648;49.730;8.614;2023-05-10T15:46:29;19.10;46.60
27114;DHT22;14648;49.730;8.614;2023-05-10T15:48:55;19.10;46.50
27114;DHT22;14648;49.730;8.614;2023-05-10T15:51:22;19.10;46.70
27114;DHT22;14648;49.730;8.614;2023-05-10T15:53:47;19.00;46.60